sensor_id;sensor_type;location;lat;lon;timestamp;temperature;humidity
29345;DHT22;16339;48.748;2.222;2022-08-01T00:00:11;26.60;51.30
29345;DHT22;16339;48.748;2.222;2022-08-01T00:02:40;26.60;51.30
29345;DHT22;16339;48.748;2.222;2022-08-01T00:05:09;26.70;51.30
29345;DHT22;16339;48.748;2.222;2022-08-01T00:07:39;26.60;51.30
29345;DHT22;16339;48.748;2.222;2022-08-01T00:10:14;26.60;51.20
29345;DHT22;16339;48.748;2.222;2022-08-01T00:12:45;26.60;51.30
29345;DHT22;16339;48.748;2.222;2022-08-01T00:15:15;26.60;51.30
29345;DHT22;16339;48.748;2.222;2022-08-01T00:17:44;26.60;51.50
29345;DHT22;16339;48.748;2.222;2022-08-01T00:20:14;26.50;51.60
29345;DHT22;16339;48.748;2.222;2022-08-01T00:22:43;26.50;51.70
29345;DHT22;16339;48.748;2.222;2022-08-01T00:25:14;26.50;51.70
29345;DHT22;16339;48.748;2.222;2022-08-01T00:27:43;26.50;51.70
29345;DHT22;16339;48.748;2.222;2022-08-01T00:30:11;26.50;51.90
29345;DHT22;16339;48.748;2.222;2022-08-01T00:32:40;26.50;51.80
29345;DHT22;16339;48.748;2.222;2022-08-01T00:35:10;26.40;52.00
29345;DHT22;16339;48.748;2.222;2022-08-01T00:37:39;26.40;52.10
29345;DHT22;16339;48.748;2.222;2022-08-01T00:40:08;26.30;51.90
29345;DHT22;16339;48.748;2.222;2022-08-01T00:42:40;26.30;52.00
29345;DHT22;16339;48.748;2.222;2022-08-01T00:45:09;26.30;52.10
29345;DHT22;16339;48.748;2.222;2022-08-01T00:47:38;26.20;52.40
29345;DHT22;16339;48.748;2.222;2022-08-01T00:50:08;26.10;52.50
29345;DHT22;16339;48.748;2.222;2022-08-01T00:52:39;26.10;52.30
29345;DHT22;16339;48.748;2.222;2022-08-01T00:55:09;26.10;52.40
29345;DHT22;16339;48.748;2.222;2022-08-01T00:57:41;26.20;52.50
29345;DHT22;16339;48.748;2.222;2022-08-01T01:00:11;26.20;52.40
29345;DHT22;16339;48.748;2.222;2022-08-01T01:02:40;26.20;52.50
29345;DHT22;16339;48.748;2.222;2022-08-01T01:05:09;26.20;52.20
29345;DHT22;16339;48.748;2.222;2022-08-01T01:07:46;26.10;52.20
29345;DHT22;16339;48.748;2.222;2022-08-01T01:10:21;26.10;52.40
29345;DHT22;16339;48.748;2.222;2022-08-01T01:12:59;26.10;52.10
29345;DHT22;16339;48.748;2.222;2022-08-01T01:15:33;26.10;52.10
29345;DHT22;16339;48.748;2.222;2022-08-01T01:18:09;26.10;52.00
29345;DHT22;16339;48.748;2.222;2022-08-01T01:20:41;26.10;52.20
29345;DHT22;16339;48.748;2.222;2022-08-01T01:23:25;26.10;52.20
29345;DHT22;16339;48.748;2.222;2022-08-01T01:26:09;26.00;52.40
29345;DHT22;16339;48.748;2.222;2022-08-01T01:29:00;25.90;52.50
29345;DHT22;16339;48.748;2.222;2022-08-01T01:31:34;25.80;52.70
29345;DHT22;16339;48.748;2.222;2022-08-01T01:34:05;25.80;53.00
29345;DHT22;16339;48.748;2.222;2022-08-01T01:36:37;25.80;53.10
29345;DHT22;16339;48.748;2.222;2022-08-01T01:39:06;25.70;53.30
29345;DHT22;16339;48.748;2.222;2022-08-01T01:41:36;25.70;53.20
29345;DHT22;16339;48.748;2.222;2022-08-01T01:44:09;25.70;52.80
29345;DHT22;16339;48.748;2.222;2022-08-01T01:46:39;25.70;52.90
29345;DHT22;16339;48.748;2.222;2022-08-01T01:49:09;25.70;53.10
29345;DHT22;16339;48.748;2.222;2022-08-01T01:51:39;25.70;53.20
29345;DHT22;16339;48.748;2.222;2022-08-01T01:54:11;25.70;53.30
29345;DHT22;16339;48.748;2.222;2022-08-01T01:56:41;25.70;53.10
29345;DHT22;16339;48.748;2.222;2022-08-01T01:59:21;25.70;53.20
29345;DHT22;16339;48.748;2.222;2022-08-01T02:01:55;25.60;53.40
29345;DHT22;16339;48.748;2.222;2022-08-01T02:04:26;25.60;53.40
29345;DHT22;16339;48.748;2.222;2022-08-01T02:06:56;25.50;53.40
29345;DHT22;16339;48.748;2.222;2022-08-01T02:09:27;25.50;53.60
29345;DHT22;16339;48.748;2.222;2022-08-01T02:11:58;25.40;53.70
29345;DHT22;16339;48.748;2.222;2022-08-01T02:14:31;25.50;53.70
29345;DHT22;16339;48.748;2.222;2022-08-01T02:17:01;25.40;53.50
29345;DHT22;16339;48.748;2.222;2022-08-01T02:19:31;25.50;53.30
29345;DHT22;16339;48.748;2.222;2022-08-01T02:22:02;25.40;53.40
29345;DHT22;16339;48.748;2.222;2022-08-01T02:24:37;25.40;53.50
29345;DHT22;16339;48.748;2.222;2022-08-01T02:27:09;25.40;53.30
29345;DHT22;16339;48.748;2.222;2022-08-01T02:29:45;25.40;53.60
29345;DHT22;16339;48.748;2.222;2022-08-01T02:32:20;25.40;53.60
29345;DHT22;16339;48.748;2.222;2022-08-01T02:34:53;25.40;53.50
29345;DHT22;16339;48.748;2.222;2022-08-01T02:37:26;25.50;53.50
29345;DHT22;16339;48.748;2.222;2022-08-01T02:39:59;25.50;53.20
29345;DHT22;16339;48.748;2.222;2022-08-01T02:42:30;25.40;53.20
29345;DHT22;16339;48.748;2.222;2022-08-01T02:45:02;25.50;53.40
29345;DHT22;16339;48.748;2.222;2022-08-01T02:47:35;25.40;53.40
29345;DHT22;16339;48.748;2.222;2022-08-01T02:50:05;25.40;53.50
29345;DHT22;16339;48.748;2.222;2022-08-01T02:52:35;25.40;53.10
29345;DHT22;16339;48.748;2.222;2022-08-01T02:55:05;25.40;52.90
29345;DHT22;16339;48.748;2.222;2022-08-01T02:57:35;25.50;53.00
29345;DHT22;16339;48.748;2.222;2022-08-01T03:00:08;25.60;53.10
29345;DHT22;16339;48.748;2.222;2022-08-01T03:02:38;25.50;53.30
29345;DHT22;16339;48.748;2.222;2022-08-01T03:05:08;25.50;53.30
29345;DHT22;16339;48.748;2.222;2022-08-01T03:07:38;25.50;53.30
29345;DHT22;16339;48.748;2.222;2022-08-01T03:10:09;25.60;53.50
29345;DHT22;16339;48.748;2.222;2022-08-01T03:12:39;25.60;53.50
29345;DHT22;16339;48.748;2.222;2022-08-01T03:15:12;25.60;53.50
29345;DHT22;16339;48.748;2.222;2022-08-01T03:17:43;25.60;53.60
29345;DHT22;16339;48.748;2.222;2022-08-01T03:20:14;25.50;53.60
29345;DHT22;16339;48.748;2.222;2022-08-01T03:22:43;25.50;53.80
29345;DHT22;16339;48.748;2.222;2022-08-01T03:25:14;25.60;53.80
29345;DHT22;16339;48.748;2.222;2022-08-01T03:27:47;25.60;53.70
29345;DHT22;16339;48.748;2.222;2022-08-01T03:30:19;25.60;53.70
29345;DHT22;16339;48.748;2.222;2022-08-01T03:32:48;25.60;53.80
29345;DHT22;16339;48.748;2.222;2022-08-01T03:35:17;25.60;53.80
29345;DHT22;16339;48.748;2.222;2022-08-01T03:37:48;25.60;53.90
29345;DHT22;16339;48.748;2.222;2022-08-01T03:40:23;25.60;54.00
29345;DHT22;16339;48.748;2.222;2022-08-01T03:42:56;25.60;54.00
29345;DHT22;16339;48.748;2.222;2022-08-01T03:45:32;25.60;54.00
29345;DHT22;16339;48.748;2.222;2022-08-01T03:48:06;25.60;54.10
29345;DHT22;16339;48.748;2.222;2022-08-01T03:50:41;25.60;54.10
29345;DHT22;16339;48.748;2.222;2022-08-01T03:53:10;25.60;54.10
29345;DHT22;16339;48.748;2.222;2022-08-01T03:55:41;25.60;54.30
29345;DHT22;16339;48.748;2.222;2022-08-01T03:58:10;25.50;54.30
29345;DHT22;16339;48.748;2.222;2022-08-01T04:00:43;25.50;54.50
29345;DHT22;16339;48.748;2.222;2022-08-01T04:03:13;25.50;54.50
29345;DHT22;16339;48.748;2.222;2022-08-01T04:05:42;25.50;54.50
29345;DHT22;16339;48.748;2.222;2022-08-01T04:08:11;25.50;54.50
29345;DHT22;16339;48.748;2.222;2022-08-01T04:10:40;25.50;54.50
29345;DHT22;16339;48.748;2.222;2022-08-01T04:13:08;25.50;54.50
29345;DHT22;16339;48.748;2.222;2022-08-01T04:15:38;25.50;54.60
29345;DHT22;16339;48.748;2.222;2022-08-01T04:18:09;25.60;54.70
29345;DHT22;16339;48.748;2.222;2022-08-01T04:20:38;25.50;54.80
29345;DHT22;16339;48.748;2.222;2022-08-01T04:23:08;25.60;54.90
29345;DHT22;16339;48.748;2.222;2022-08-01T04:25:38;25.60;54.90
29345;DHT22;16339;48.748;2.222;2022-08-01T04:28:09;25.60;54.80
29345;DHT22;16339;48.748;2.222;2022-08-01T04:30:43;25.60;54.90
29345;DHT22;16339;48.748;2.222;2022-08-01T04:33:16;25.60;54.90
29345;DHT22;16339;48.748;2.222;2022-08-01T04:35:46;25.60;55.00
29345;DHT22;16339;48.748;2.222;2022-08-01T04:38:20;25.60;55.00
29345;DHT22;16339;48.748;2.222;2022-08-01T04:40:50;25.60;54.90
29345;DHT22;16339;48.748;2.222;2022-08-01T04:43:21;25.60;54.80
29345;DHT22;16339;48.748;2.222;2022-08-01T04:45:51;25.60;54.80
29345;DHT22;16339;48.748;2.222;2022-08-01T04:48:23;25.60;54.90
29345;DHT22;16339;48.748;2.222;2022-08-01T04:50:53;25.60;55.00
29345;DHT22;16339;48.748;2.222;2022-08-01T04:53:22;25.60;55.10
29345;DHT22;16339;48.748;2.222;2022-08-01T04:55:51;25.60;55.20
29345;DHT22;16339;48.748;2.222;2022-08-01T04:58:21;25.60;55.10
29345;DHT22;16339;48.748;2.222;2022-08-01T05:00:49;25.60;55.00
29345;DHT22;16339;48.748;2.222;2022-08-01T05:03:19;25.60;55.10
29345;DHT22;16339;48.748;2.222;2022-08-01T05:05:50;25.70;55.20
29345;DHT22;16339;48.748;2.222;2022-08-01T05:08:19;25.70;55.20
29345;DHT22;16339;48.748;2.222;2022-08-01T05:10:47;25.70;55.20
29345;DHT22;16339;48.748;2.222;2022-08-01T05:13:16;25.70;55.10
29345;DHT22;16339;48.748;2.222;2022-08-01T05:15:45;25.70;55.20
29345;DHT22;16339;48.748;2.222;2022-08-01T05:18:14;25.80;55.20
29345;DHT22;16339;48.748;2.222;2022-08-01T05:20:45;25.80;55.10
29345;DHT22;16339;48.748;2.222;2022-08-01T05:23:16;25.80;55.00
29345;DHT22;16339;48.748;2.222;2022-08-01T05:25:48;25.90;55.00
29345;DHT22;16339;48.748;2.222;2022-08-01T05:28:17;25.90;55.00
29345;DHT22;16339;48.748;2.222;2022-08-01T05:30:45;25.90;55.00
29345;DHT22;16339;48.748;2.222;2022-08-01T05:33:20;25.90;55.10
29345;DHT22;16339;48.748;2.222;2022-08-01T05:35:49;25.90;55.10
29345;DHT22;16339;48.748;2.222;2022-08-01T05:38:20;25.90;55.10
29345;DHT22;16339;48.748;2.222;2022-08-01T05:40:49;25.80;55.20
29345;DHT22;16339;48.748;2.222;2022-08-01T05:43:18;25.90;55.30
29345;DHT22;16339;48.748;2.222;2022-08-01T05:45:47;25.80;55.30
29345;DHT22;16339;48.748;2.222;2022-08-01T05:48:53;25.80;55.40
29345;DHT22;16339;48.748;2.222;2022-08-01T05:52:04;25.80;55.50
29345;DHT22;16339;48.748;2.222;2022-08-01T05:54:39;25.90;55.50
29345;DHT22;16339;48.748;2.222;2022-08-01T05:57:12;25.90;55.80
29345;DHT22;16339;48.748;2.222;2022-08-01T05:59:41;25.90;55.70
29345;DHT22;16339;48.748;2.222;2022-08-01T06:02:10;26.00;55.90
29345;DHT22;16339;48.748;2.222;2022-08-01T06:05:05;25.90;55.80
29345;DHT22;16339;48.748;2.222;2022-08-01T06:08:20;25.90;55.80
29345;DHT22;16339;48.748;2.222;2022-08-01T06:11:08;25.90;56.10
29345;DHT22;16339;48.748;2.222;2022-08-01T06:13:38;25.80;56.00
29345;DHT22;16339;48.748;2.222;2022-08-01T06:16:07;25.80;56.00
29345;DHT22;16339;48.748;2.222;2022-08-01T06:18:40;25.80;56.10
29345;DHT22;16339;48.748;2.222;2022-08-01T06:21:09;25.90;56.00
29345;DHT22;16339;48.748;2.222;2022-08-01T06:23:57;25.90;56.00
29345;DHT22;16339;48.748;2.222;2022-08-01T06:26:52;25.90;56.10
29345;DHT22;16339;48.748;2.222;2022-08-01T06:29:47;25.90;56.00
29345;DHT22;16339;48.748;2.222;2022-08-01T06:32:53;25.90;56.10
29345;DHT22;16339;48.748;2.222;2022-08-01T06:35:39;25.80;56.30
29345;DHT22;16339;48.748;2.222;2022-08-01T06:38:09;25.80;56.30
29345;DHT22;16339;48.748;2.222;2022-08-01T06:40:38;25.80;56.30
29345;DHT22;16339;48.748;2.222;2022-08-01T06:43:10;25.80;56.30
29345;DHT22;16339;48.748;2.222;2022-08-01T06:45:41;25.90;56.00
29345;DHT22;16339;48.748;2.222;2022-08-01T06:48:10;25.70;55.90
29345;DHT22;16339;48.748;2.222;2022-08-01T06:50:53;25.70;55.80
29345;DHT22;16339;48.748;2.222;2022-08-01T06:53:33;25.60;55.70
29345;DHT22;16339;48.748;2.222;2022-08-01T06:56:05;25.70;55.50
29345;DHT22;16339;48.748;2.222;2022-08-01T06:58:39;25.70;55.50
29345;DHT22;16339;48.748;2.222;2022-08-01T07:01:09;25.60;55.70
29345;DHT22;16339;48.748;2.222;2022-08-01T07:03:53;25.50;55.80
29345;DHT22;16339;48.748;2.222;2022-08-01T07:06:36;25.50;55.60
29345;DHT22;16339;48.748;2.222;2022-08-01T07:09:07;25.60;55.70
29345;DHT22;16339;48.748;2.222;2022-08-01T07:12:30;25.60;55.70
29345;DHT22;16339;48.748;2.222;2022-08-01T07:15:10;25.70;55.60
29345;DHT22;16339;48.748;2.222;2022-08-01T07:27:29;25.60;55.30
29345;DHT22;16339;48.748;2.222;2022-08-01T07:30:08;25.80;55.20
29345;DHT22;16339;48.748;2.222;2022-08-01T07:32:44;25.80;55.20
29345;DHT22;16339;48.748;2.222;2022-08-01T07:35:14;25.70;55.00
29345;DHT22;16339;48.748;2.222;2022-08-01T07:37:43;25.70;55.00
29345;DHT22;16339;48.748;2.222;2022-08-01T07:40:15;25.70;54.90
29345;DHT22;16339;48.748;2.222;2022-08-01T07:42:56;25.90;55.00
29345;DHT22;16339;48.748;2.222;2022-08-01T07:45:26;25.90;54.70
29345;DHT22;16339;48.748;2.222;2022-08-01T07:48:14;25.90;54.50
29345;DHT22;16339;48.748;2.222;2022-08-01T07:50:44;26.00;54.40
29345;DHT22;16339;48.748;2.222;2022-08-01T07:53:13;26.10;54.20
29345;DHT22;16339;48.748;2.222;2022-08-01T07:56:17;26.20;54.30
29345;DHT22;16339;48.748;2.222;2022-08-01T07:59:14;26.30;54.20
29345;DHT22;16339;48.748;2.222;2022-08-01T08:01:51;26.30;53.80
29345;DHT22;16339;48.748;2.222;2022-08-01T08:08:08;26.30;53.80
29345;DHT22;16339;48.748;2.222;2022-08-01T08:11:02;26.20;53.10
29345;DHT22;16339;48.748;2.222;2022-08-01T08:17:45;26.10;52.70
29345;DHT22;16339;48.748;2.222;2022-08-01T08:20:59;25.90;53.20
29345;DHT22;16339;48.748;2.222;2022-08-01T08:23:32;26.00;53.00
29345;DHT22;16339;48.748;2.222;2022-08-01T08:26:13;26.10;52.70
29345;DHT22;16339;48.748;2.222;2022-08-01T08:28:42;26.10;52.60
29345;DHT22;16339;48.748;2.222;2022-08-01T08:31:28;26.10;52.50
29345;DHT22;16339;48.748;2.222;2022-08-01T08:34:18;26.10;52.50
29345;DHT22;16339;48.748;2.222;2022-08-01T08:37:19;26.10;52.40
29345;DHT22;16339;48.748;2.222;2022-08-01T08:40:16;26.20;52.50
29345;DHT22;16339;48.748;2.222;2022-08-01T08:42:46;26.50;52.30
29345;DHT22;16339;48.748;2.222;2022-08-01T08:45:16;26.60;52.10
29345;DHT22;16339;48.748;2.222;2022-08-01T08:47:54;26.80;51.50
29345;DHT22;16339;48.748;2.222;2022-08-01T08:50:36;26.80;50.80
29345;DHT22;16339;48.748;2.222;2022-08-01T08:53:05;27.00;50.60
29345;DHT22;16339;48.748;2.222;2022-08-01T08:55:53;27.10;50.60
29345;DHT22;16339;48.748;2.222;2022-08-01T08:58:58;27.00;50.90
29345;DHT22;16339;48.748;2.222;2022-08-01T09:05:08;27.10;50.50
29345;DHT22;16339;48.748;2.222;2022-08-01T09:07:51;27.10;50.20
29345;DHT22;16339;48.748;2.222;2022-08-01T09:10:20;27.20;50.00
29345;DHT22;16339;48.748;2.222;2022-08-01T09:13:12;27.30;49.90
29345;DHT22;16339;48.748;2.222;2022-08-01T09:15:52;27.40;50.00
29345;DHT22;16339;48.748;2.222;2022-08-01T09:18:29;27.50;49.70
29345;DHT22;16339;48.748;2.222;2022-08-01T09:21:19;27.60;49.60
29345;DHT22;16339;48.748;2.222;2022-08-01T09:24:34;27.50;49.90
29345;DHT22;16339;48.748;2.222;2022-08-01T09:34:31;27.30;50.10
29345;DHT22;16339;48.748;2.222;2022-08-01T09:37:02;27.30;50.10
29345;DHT22;16339;48.748;2.222;2022-08-01T09:39:33;27.20;50.10
29345;DHT22;16339;48.748;2.222;2022-08-01T09:42:22;27.20;50.20
29345;DHT22;16339;48.748;2.222;2022-08-01T09:44:53;27.30;50.50
29345;DHT22;16339;48.748;2.222;2022-08-01T09:47:37;27.30;51.20
29345;DHT22;16339;48.748;2.222;2022-08-01T09:50:11;27.20;50.50
29345;DHT22;16339;48.748;2.222;2022-08-01T09:52:41;27.10;50.60
29345;DHT22;16339;48.748;2.222;2022-08-01T09:55:22;26.90;51.20
29345;DHT22;16339;48.748;2.222;2022-08-01T09:57:55;26.90;51.20
29345;DHT22;16339;48.748;2.222;2022-08-01T10:00:27;26.90;51.10
29345;DHT22;16339;48.748;2.222;2022-08-01T10:02:57;26.90;51.10
29345;DHT22;16339;48.748;2.222;2022-08-01T10:06:09;26.90;51.10
29345;DHT22;16339;48.748;2.222;2022-08-01T10:09:01;26.70;51.30
29345;DHT22;16339;48.748;2.222;2022-08-01T12:06:11;28.80;46.60
29345;DHT22;16339;48.748;2.222;2022-08-01T12:12:51;28.80;47.20
29345;DHT22;16339;48.748;2.222;2022-08-01T12:16:12;28.80;46.60
29345;DHT22;16339;48.748;2.222;2022-08-01T12:22:26;29.00;46.20
29345;DHT22;16339;48.748;2.222;2022-08-01T12:25:14;29.10;45.90
29345;DHT22;16339;48.748;2.222;2022-08-01T12:28:05;29.10;45.80
29345;DHT22;16339;48.748;2.222;2022-08-01T12:35:33;29.10;45.60
29345;DHT22;16339;48.748;2.222;2022-08-01T12:48:42;28.40;47.20
29345;DHT22;16339;48.748;2.222;2022-08-01T12:56:24;28.30;48.00
29345;DHT22;16339;48.748;2.222;2022-08-01T13:02:19;28.80;47.20
29345;DHT22;16339;48.748;2.222;2022-08-01T14:35:55;29.80;43.20
29345;DHT22;16339;48.748;2.222;2022-08-01T20:09:19;27.30;49.00
29345;DHT22;16339;48.748;2.222;2022-08-01T20:12:40;27.40;49.10
29345;DHT22;16339;48.748;2.222;2022-08-01T20:16:20;27.30;49.40
29345;DHT22;16339;48.748;2.222;2022-08-01T20:19:11;27.20;49.50
29345;DHT22;16339;48.748;2.222;2022-08-01T20:21:51;27.20;49.60
29345;DHT22;16339;48.748;2.222;2022-08-01T20:27:50;27.10;49.80
29345;DHT22;16339;48.748;2.222;2022-08-01T20:30:25;27.10;49.80
29345;DHT22;16339;48.748;2.222;2022-08-01T20:32:56;27.10;49.90
29345;DHT22;16339;48.748;2.222;2022-08-01T20:35:27;27.00;49.90
29345;DHT22;16339;48.748;2.222;2022-08-01T20:37:56;27.00;50.20
29345;DHT22;16339;48.748;2.222;2022-08-01T20:40:25;26.90;50.10
29345;DHT22;16339;48.748;2.222;2022-08-01T20:42:57;26.90;50.20
29345;DHT22;16339;48.748;2.222;2022-08-01T20:45:26;26.90;50.40
29345;DHT22;16339;48.748;2.222;2022-08-01T20:47:56;26.80;50.30
29345;DHT22;16339;48.748;2.222;2022-08-01T20:50:25;26.80;50.40
29345;DHT22;16339;48.748;2.222;2022-08-01T20:53:06;26.70;50.50
29345;DHT22;16339;48.748;2.222;2022-08-01T20:55:44;26.70;50.60
29345;DHT22;16339;48.748;2.222;2022-08-01T20:58:23;26.60;50.60
29345;DHT22;16339;48.748;2.222;2022-08-01T21:01:00;26.70;50.70
29345;DHT22;16339;48.748;2.222;2022-08-01T21:03:39;26.60;50.60
29345;DHT22;16339;48.748;2.222;2022-08-01T21:06:12;26.60;50.80
29345;DHT22;16339;48.748;2.222;2022-08-01T21:08:45;26.50;51.00
29345;DHT22;16339;48.748;2.222;2022-08-01T21:11:15;26.50;51.10
29345;DHT22;16339;48.748;2.222;2022-08-01T21:13:50;26.50;51.50
29345;DHT22;16339;48.748;2.222;2022-08-01T21:16:25;26.30;51.70
29345;DHT22;16339;48.748;2.222;2022-08-01T21:19:00;26.30;52.00
29345;DHT22;16339;48.748;2.222;2022-08-01T21:21:35;26.30;52.00
29345;DHT22;16339;48.748;2.222;2022-08-01T21:24:15;26.30;51.90
29345;DHT22;16339;48.748;2.222;2022-08-01T21:26:46;26.40;51.80
29345;DHT22;16339;48.748;2.222;2022-08-01T21:29:19;26.30;51.80
29345;DHT22;16339;48.748;2.222;2022-08-01T21:31:50;26.30;51.70
29345;DHT22;16339;48.748;2.222;2022-08-01T21:34:33;26.20;51.80
29345;DHT22;16339;48.748;2.222;2022-08-01T21:37:05;26.30;51.80
29345;DHT22;16339;48.748;2.222;2022-08-01T21:39:35;26.20;51.90
29345;DHT22;16339;48.748;2.222;2022-08-01T21:42:05;26.30;52.00
29345;DHT22;16339;48.748;2.222;2022-08-01T21:44:37;26.30;52.20
29345;DHT22;16339;48.748;2.222;2022-08-01T21:47:06;26.20;52.30
29345;DHT22;16339;48.748;2.222;2022-08-01T21:49:37;26.10;52.30
29345;DHT22;16339;48.748;2.222;2022-08-01T21:52:08;26.10;52.50
29345;DHT22;16339;48.748;2.222;2022-08-01T21:54:48;26.00;52.50
29345;DHT22;16339;48.748;2.222;2022-08-01T21:57:28;26.00;52.50
29345;DHT22;16339;48.748;2.222;2022-08-01T22:00:07;26.00;52.70
29345;DHT22;16339;48.748;2.222;2022-08-01T22:02:43;26.00;52.90
29345;DHT22;16339;48.748;2.222;2022-08-01T22:05:16;26.10;52.80
29345;DHT22;16339;48.748;2.222;2022-08-01T22:07:53;26.10;52.70
29345;DHT22;16339;48.748;2.222;2022-08-01T22:10:25;26.10;52.60
29345;DHT22;16339;48.748;2.222;2022-08-01T22:12:56;26.10;52.70
29345;DHT22;16339;48.748;2.222;2022-08-01T22:15:30;26.00;52.70
29345;DHT22;16339;48.748;2.222;2022-08-01T22:17:59;26.00;52.90
29345;DHT22;16339;48.748;2.222;2022-08-01T22:20:28;26.10;52.80
29345;DHT22;16339;48.748;2.222;2022-08-01T22:23:00;26.10;52.70
29345;DHT22;16339;48.748;2.222;2022-08-01T22:25:31;26.10;52.70
29345;DHT22;16339;48.748;2.222;2022-08-01T22:28:02;26.10;52.70
29345;DHT22;16339;48.748;2.222;2022-08-01T22:30:36;26.10;52.70
29345;DHT22;16339;48.748;2.222;2022-08-01T22:33:08;26.00;52.70
29345;DHT22;16339;48.748;2.222;2022-08-01T22:35:37;26.00;52.80
29345;DHT22;16339;48.748;2.222;2022-08-01T22:38:07;26.00;52.80
29345;DHT22;16339;48.748;2.222;2022-08-01T22:40:39;26.00;52.60
29345;DHT22;16339;48.748;2.222;2022-08-01T22:43:17;26.00;52.70
29345;DHT22;16339;48.748;2.222;2022-08-01T22:48:44;26.00;52.40
29345;DHT22;16339;48.748;2.222;2022-08-01T22:51:31;26.00;52.40
29345;DHT22;16339;48.748;2.222;2022-08-01T22:54:04;26.00;52.40
29345;DHT22;16339;48.748;2.222;2022-08-01T22:56:38;26.10;52.40
29345;DHT22;16339;48.748;2.222;2022-08-01T22:59:13;26.10;52.40
29345;DHT22;16339;48.748;2.222;2022-08-01T23:01:50;26.00;52.20
29345;DHT22;16339;48.748;2.222;2022-08-01T23:04:24;26.00;52.30
29345;DHT22;16339;48.748;2.222;2022-08-01T23:06:58;26.00;52.00
29345;DHT22;16339;48.748;2.222;2022-08-01T23:09:32;25.90;51.70
29345;DHT22;16339;48.748;2.222;2022-08-01T23:12:02;26.00;51.50
29345;DHT22;16339;48.748;2.222;2022-08-01T23:14:32;26.00;51.40
29345;DHT22;16339;48.748;2.222;2022-08-01T23:17:04;25.90;51.50
29345;DHT22;16339;48.748;2.222;2022-08-01T23:19:33;25.90;51.50
29345;DHT22;16339;48.748;2.222;2022-08-01T23:22:08;25.90;51.50
29345;DHT22;16339;48.748;2.222;2022-08-01T23:24:39;25.90;51.50
29345;DHT22;16339;48.748;2.222;2022-08-01T23:27:11;26.00;51.60
29345;DHT22;16339;48.748;2.222;2022-08-01T23:29:56;25.90;51.60
29345;DHT22;16339;48.748;2.222;2022-08-01T23:32:31;25.90;51.60
29345;DHT22;16339;48.748;2.222;2022-08-01T23:34:59;25.90;51.80
29345;DHT22;16339;48.748;2.222;2022-08-01T23:37:28;25.90;51.90
29345;DHT22;16339;48.748;2.222;2022-08-01T23:39:57;25.90;51.90
29345;DHT22;16339;48.748;2.222;2022-08-01T23:42:28;25.90;52.00
29345;DHT22;16339;48.748;2.222;2022-08-01T23:44:57;25.90;52.10
29345;DHT22;16339;48.748;2.222;2022-08-01T23:47:32;25.90;52.20
29345;DHT22;16339;48.748;2.222;2022-08-01T23:50:01;25.90;52.20
29345;DHT22;16339;48.748;2.222;2022-08-01T23:52:32;25.80;52.20
29345;DHT22;16339;48.748;2.222;2022-08-01T23:55:05;25.90;52.20
29345;DHT22;16339;48.748;2.222;2022-08-01T23:57:34;25.80;52.20
